Time;durP1;ratioP1;P1;durP2;ratioP2;P2;SDS_P1;SDS_P2;PMS_P1;PMS_P2;Temp;Humidity;BMP_temperature;BMP_pressure;BME280_temperature;BME280_humidity;BME280_pressure;Samples;Min_cycle;Max_cycle;Signal;HPM_P1;HPM_P2
2021/04/17 00:01:53;;;;;;;17.85;6.40;;;4.80;83.20;;;;;;5042266;28;20045;-78
2021/04/17 00:04:20;;;;;;;13.90;6.40;;;4.80;83.60;;;;;;5043206;28;20492;-74
2021/04/17 00:06:46;;;;;;;16.50;6.40;;;4.80;83.70;;;;;;5037824;28;20072;-76
2021/04/17 00:09:15;;;;;;;18.35;8.48;;;4.80;84.00;;;;;;5032842;28;20056;-79
2021/04/17 00:11:43;;;;;;;21.83;8.02;;;4.80;83.80;;;;;;5037773;28;20044;-75
2021/04/17 00:14:17;;;;;;;15.25;6.40;;;4.70;83.90;;;;;;5037417;28;20138;-76
2021/04/17 00:16:44;;;;;;;19.88;6.28;;;4.70;84.30;;;;;;5040829;28;20045;-75
2021/04/17 00:19:09;;;;;;;15.52;6.85;;;4.60;84.20;;;;;;5039282;28;20120;-74
2021/04/17 00:21:35;;;;;;;15.40;6.03;;;4.60;84.30;;;;;;5040668;28;20075;-74
2021/04/17 00:24:01;;;;;;;20.27;7.53;;;4.60;84.30;;;;;;5032250;28;20046;-75
2021/04/17 00:26:27;;;;;;;16.15;6.68;;;4.50;84.40;;;;;;5041050;28;20033;-75
2021/04/17 00:28:53;;;;;;;20.23;6.05;;;4.50;84.70;;;;;;5038319;28;20095;-75
2021/04/17 00:31:19;;;;;;;21.80;7.65;;;4.50;85.00;;;;;;5037288;28;20523;-74
2021/04/17 00:33:45;;;;;;;16.13;6.63;;;4.50;85.20;;;;;;5039025;28;20112;-77
2021/04/17 00:36:10;;;;;;;21.90;8.20;;;4.50;85.30;;;;;;5035155;28;20467;-76
2021/04/17 00:38:36;;;;;;;19.05;7.30;;;4.40;85.40;;;;;;5053507;28;20029;-74
2021/04/17 00:41:03;;;;;;;19.52;6.97;;;4.40;85.70;;;;;;5038775;28;20041;-75
2021/04/17 00:43:29;;;;;;;16.92;7.25;;;4.40;85.70;;;;;;5037542;28;20033;-79
2021/04/17 00:45:55;;;;;;;17.70;7.05;;;4.40;85.60;;;;;;5038651;28;20044;-75
2021/04/17 00:48:21;;;;;;;17.42;6.95;;;4.40;85.60;;;;;;5032731;28;20129;-79
2021/04/17 00:50:47;;;;;;;19.60;6.97;;;4.30;85.90;;;;;;5040792;28;20025;-75
2021/04/17 00:53:13;;;;;;;26.00;8.07;;;4.30;86.00;;;;;;5038413;28;20125;-78
2021/04/17 00:55:39;;;;;;;18.52;7.70;;;4.30;86.10;;;;;;5039042;28;20040;-74
2021/04/17 00:58:06;;;;;;;16.55;7.43;;;4.30;86.30;;;;;;5050655;28;20567;-74
2021/04/17 01:00:35;;;;;;;21.75;8.23;;;4.30;86.50;;;;;;5058988;28;20028;-74
2021/04/17 01:03:18;;;;;;;17.92;8.18;;;4.30;86.80;;;;;;5057995;28;20028;-75
2021/04/17 01:05:46;;;;;;;19.60;8.13;;;4.30;86.80;;;;;;5040408;28;20040;-74
2021/04/17 01:08:22;;;;;;;20.77;9.07;;;4.30;87.00;;;;;;5054335;28;21035;-74
2021/04/17 01:10:54;;;;;;;20.80;9.23;;;4.30;87.00;;;;;;5058041;28;20114;-74
2021/04/17 01:13:21;;;;;;;21.13;8.60;;;4.30;87.10;;;;;;5057243;28;20624;-74
2021/04/17 01:15:48;;;;;;;18.52;8.70;;;4.30;87.10;;;;;;5058168;28;20044;-73
2021/04/17 01:18:14;;;;;;;23.58;9.25;;;4.30;87.40;;;;;;5056216;28;20059;-74
2021/04/17 01:20:46;;;;;;;22.90;9.18;;;4.30;87.60;;;;;;5050417;28;20035;-75
2021/04/17 01:23:40;;;;;;;23.42;9.30;;;4.40;87.60;;;;;;5045417;28;20071;-76
2021/04/17 01:26:17;;;;;;;25.35;9.90;;;4.40;87.60;;;;;;5040627;28;20036;-74
2021/04/17 01:28:47;;;;;;;20.88;9.25;;;4.30;87.60;;;;;;5031797;28;20516;-75
2021/04/17 01:31:14;;;;;;;17.42;9.15;;;4.30;87.70;;;;;;5034752;28;20151;-79
2021/04/17 01:33:48;;;;;;;18.05;8.95;;;4.30;87.70;;;;;;5029628;28;20491;-76
2021/04/17 01:36:15;;;;;;;23.38;9.82;;;4.30;87.80;;;;;;5031891;28;20530;-79
2021/04/17 01:39:06;;;;;;;23.40;11.05;;;4.30;87.90;;;;;;5037296;28;20546;-75
2021/04/17 01:41:44;;;;;;;20.55;10.70;;;4.30;88.00;;;;;;5032566;28;20060;-78
2021/04/17 01:44:24;;;;;;;27.60;10.82;;;4.30;88.20;;;;;;5040664;28;20040;-76
2021/04/17 01:46:56;;;;;;;25.20;12.13;;;4.30;88.20;;;;;;5035029;28;20045;-73
2021/04/17 01:49:24;;;;;;;28.42;11.35;;;4.20;88.40;;;;;;5036753;28;20041;-76
2021/04/17 01:51:53;;;;;;;23.98;12.32;;;4.20;88.50;;;;;;5037884;28;20435;-79
2021/04/17 01:54:33;;;;;;;24.67;13.07;;;4.20;88.80;;;;;;5036716;28;20044;-76
2021/04/17 01:57:03;;;;;;;27.70;12.48;;;4.20;88.80;;;;;;5036312;28;20063;-74
2021/04/17 01:59:32;;;;;;;25.05;12.00;;;4.20;88.80;;;;;;5037278;28;20033;-75
2021/04/17 02:01:57;;;;;;;28.65;13.65;;;4.10;88.80;;;;;;5033155;28;20113;-74
2021/04/17 02:04:23;;;;;;;24.85;12.57;;;4.10;88.90;;;;;;5035511;28;20548;-74
2021/04/17 02:06:49;;;;;;;27.67;12.93;;;4.20;89.00;;;;;;5036778;28;20044;-74
2021/04/17 02:09:15;;;;;;;27.08;12.48;;;4.20;89.00;;;;;;5037360;28;20036;-74
2021/04/17 02:11:40;;;;;;;29.23;13.43;;;4.10;89.00;;;;;;5037661;28;20588;-73
2021/04/17 02:14:06;;;;;;;22.85;14.15;;;4.20;89.00;;;;;;5038589;28;20091;-75
2021/04/17 02:16:50;;;;;;;24.60;14.50;;;4.20;88.90;;;;;;5037776;28;20468;-73
2021/04/17 02:19:39;;;;;;;30.88;14.80;;;4.20;89.00;;;;;;5040423;28;20044;-74
2021/04/17 02:22:06;;;;;;;25.52;13.48;;;4.20;88.90;;;;;;5053992;28;20443;-74
2021/04/17 02:24:32;;;;;;;20.00;14.38;;;4.20;88.90;;;;;;5040522;28;20070;-77
2021/04/17 02:26:59;;;;;;;27.23;16.15;;;4.20;88.80;;;;;;5047500;28;20053;-74
2021/04/17 02:29:25;;;;;;;30.02;15.48;;;4.30;88.80;;;;;;5056967;28;20037;-74
2021/04/17 02:31:51;;;;;;;25.70;15.63;;;4.30;88.70;;;;;;5049216;28;20388;-75
2021/04/17 02:34:18;;;;;;;29.95;15.02;;;4.30;88.50;;;;;;5058522;28;20037;-76
2021/04/17 02:36:43;;;;;;;29.05;15.63;;;4.20;88.40;;;;;;5061209;28;20211;-75
2021/04/17 02:39:09;;;;;;;26.45;14.95;;;4.20;88.30;;;;;;5061763;28;20530;-75
2021/04/17 02:41:35;;;;;;;25.50;15.20;;;4.30;88.10;;;;;;5060037;28;20024;-76
2021/04/17 02:44:00;;;;;;;26.50;14.63;;;4.20;88.00;;;;;;5061268;28;20029;-74
2021/04/17 02:46:26;;;;;;;28.63;15.18;;;4.20;87.80;;;;;;5061525;28;20070;-74
2021/04/17 02:48:52;;;;;;;29.30;14.88;;;4.20;87.80;;;;;;5066565;28;20361;-77
2021/04/17 02:51:17;;;;;;;24.38;14.60;;;4.10;87.80;;;;;;5059419;28;20109;-76
2021/04/17 02:53:43;;;;;;;26.17;14.55;;;4.10;87.80;;;;;;5061192;28;20033;-74
2021/04/17 02:56:09;;;;;;;24.23;14.48;;;4.10;87.70;;;;;;5063086;28;20066;-76
2021/04/17 02:58:35;;;;;;;24.45;14.25;;;4.10;87.60;;;;;;5058810;28;20468;-75
2021/04/17 03:01:01;;;;;;;24.02;13.85;;;4.10;87.50;;;;;;5068178;28;20028;-75
2021/04/17 03:03:27;;;;;;;25.67;14.20;;;4.10;87.50;;;;;;5071209;28;20102;-75
2021/04/17 03:05:53;;;;;;;26.38;14.98;;;4.10;87.50;;;;;;5073531;28;20041;-77
2021/04/17 03:08:18;;;;;;;23.73;14.65;;;4.00;87.50;;;;;;5059605;28;20472;-74
2021/04/17 03:10:44;;;;;;;27.08;13.65;;;4.00;87.40;;;;;;5058019;28;20472;-79
2021/04/17 03:13:11;;;;;;;26.27;15.55;;;4.00;87.50;;;;;;5057571;28;20371;-75
2021/04/17 03:15:37;;;;;;;21.85;13.88;;;4.00;87.40;;;;;;5058300;28;20103;-74
2021/04/17 03:18:03;;;;;;;23.35;14.23;;;4.00;87.30;;;;;;5061839;28;20041;-76
2021/04/17 03:20:29;;;;;;;22.88;13.57;;;3.90;87.60;;;;;;5061973;28;20139;-75
2021/04/17 03:22:55;;;;;;;24.58;14.68;;;3.90;87.40;;;;;;5060815;28;20596;-75
2021/04/17 03:25:21;;;;;;;28.67;15.02;;;3.90;87.40;;;;;;5061946;28;20052;-74
2021/04/17 03:27:46;;;;;;;23.52;14.05;;;3.90;87.50;;;;;;5059992;28;20153;-78
2021/04/17 03:30:15;;;;;;;24.67;15.25;;;3.90;87.30;;;;;;5058917;28;20412;-76
2021/04/17 03:32:41;;;;;;;23.98;14.45;;;3.80;87.30;;;;;;5067401;28;20127;-80
2021/04/17 03:35:10;;;;;;;23.50;14.88;;;3.80;87.40;;;;;;5058438;28;20124;-75
2021/04/17 03:37:36;;;;;;;27.83;14.38;;;3.80;87.40;;;;;;5061990;28;20061;-79
2021/04/17 03:40:04;;;;;;;26.75;15.55;;;3.80;87.30;;;;;;5076933;28;20103;-75
2021/04/17 03:42:30;;;;;;;25.55;15.70;;;3.70;87.20;;;;;;5060389;28;20391;-79
2021/04/17 03:44:56;;;;;;;23.10;14.85;;;3.70;87.20;;;;;;5059942;28;20131;-75
2021/04/17 03:47:21;;;;;;;29.48;15.75;;;3.70;87.20;;;;;;5039043;28;20064;-77
2021/04/17 03:49:47;;;;;;;22.13;13.50;;;3.60;87.10;;;;;;5039324;28;20539;-75
2021/04/17 03:52:13;;;;;;;26.77;14.18;;;3.70;87.00;;;;;;5040103;28;20477;-74
2021/04/17 03:54:39;;;;;;;19.95;14.40;;;3.70;86.90;;;;;;5038275;28;20048;-74
2021/04/17 03:57:05;;;;;;;30.10;15.15;;;3.70;86.70;;;;;;5040554;28;20056;-78
2021/04/17 03:59:30;;;;;;;24.48;14.45;;;3.60;86.80;;;;;;5038975;28;20376;-75
2021/04/17 04:01:56;;;;;;;18.70;13.73;;;3.60;86.70;;;;;;5041339;28;20044;-79
2021/04/17 04:04:22;;;;;;;19.25;13.68;;;3.60;86.60;;;;;;5039350;28;20104;-75
2021/04/17 04:06:48;;;;;;;20.80;13.40;;;3.60;86.60;;;;;;5039242;28;20048;-76
2021/04/17 04:09:14;;;;;;;22.73;14.32;;;3.60;86.40;;;;;;5040511;28;20040;-74
2021/04/17 04:11:39;;;;;;;20.40;14.00;;;3.50;86.40;;;;;;5038910;28;20037;-74
2021/04/17 04:14:05;;;;;;;21.23;14.00;;;3.60;86.30;;;;;;5040348;28;20950;-74
2021/04/17 04:16:31;;;;;;;19.30;14.27;;;3.50;86.10;;;;;;5038685;28;20080;-74
2021/04/17 04:18:56;;;;;;;19.40;13.20;;;3.50;86.10;;;;;;5038378;28;20044;-79
2021/04/17 04:21:22;;;;;;;19.02;12.85;;;3.50;86.10;;;;;;5038097;28;20525;-77
2021/04/17 04:23:48;;;;;;;22.80;12.95;;;3.50;86.00;;;;;;5040454;28;20041;-74
2021/04/17 04:26:14;;;;;;;19.10;13.43;;;3.50;86.00;;;;;;5039826;28;20519;-74
2021/04/17 04:28:39;;;;;;;20.95;13.68;;;3.40;85.90;;;;;;5042742;28;20408;-74
2021/04/17 04:31:05;;;;;;;21.63;13.38;;;3.40;85.90;;;;;;5037233;28;20115;-76
2021/04/17 04:33:30;;;;;;;18.00;12.55;;;3.40;86.00;;;;;;5040607;28;20366;-77
2021/04/17 04:35:56;;;;;;;24.02;13.38;;;3.40;86.00;;;;;;5038212;28;20044;-75
2021/04/17 04:38:22;;;;;;;21.33;13.05;;;3.40;85.90;;;;;;5038993;28;20083;-74
2021/04/17 04:40:48;;;;;;;22.88;14.35;;;3.40;85.70;;;;;;5038866;28;20036;-78
2021/04/17 04:43:13;;;;;;;21.73;13.63;;;3.40;85.70;;;;;;5038383;28;20082;-74
2021/04/17 04:45:39;;;;;;;21.05;14.25;;;3.40;85.60;;;;;;5038184;28;20029;-75
2021/04/17 04:48:09;;;;;;;21.65;13.10;;;3.40;85.50;;;;;;5051734;28;20039;-74
2021/04/17 04:50:35;;;;;;;19.13;12.73;;;3.40;85.30;;;;;;5060609;28;20085;-74
2021/04/17 04:53:01;;;;;;;22.63;13.52;;;3.40;85.30;;;;;;5056414;28;20352;-77
2021/04/17 04:55:27;;;;;;;22.75;13.68;;;3.40;85.40;;;;;;5029282;28;20037;-76
2021/04/17 04:57:52;;;;;;;20.52;13.50;;;3.40;85.20;;;;;;5041897;28;20044;-75
2021/04/17 05:00:18;;;;;;;19.25;12.98;;;3.40;85.10;;;;;;5055405;28;20464;-74
2021/04/17 05:02:44;;;;;;;22.52;12.43;;;3.40;85.00;;;;;;5061638;28;20063;-74
2021/04/17 05:05:10;;;;;;;21.98;13.40;;;3.40;84.90;;;;;;5053193;28;20124;-75
2021/04/17 05:07:35;;;;;;;21.98;13.15;;;3.40;84.80;;;;;;5053164;28;20076;-74
2021/04/17 05:10:03;;;;;;;21.85;13.05;;;3.40;84.70;;;;;;5057496;28;20043;-74
2021/04/17 05:12:28;;;;;;;18.95;12.75;;;3.50;84.50;;;;;;5060180;28;20111;-74
2021/04/17 05:14:54;;;;;;;19.75;12.05;;;3.50;84.20;;;;;;5042362;28;20060;-74
2021/04/17 05:17:20;;;;;;;17.77;10.98;;;3.50;83.90;;;;;;5055628;28;20492;-76
2021/04/17 05:19:45;;;;;;;21.15;12.25;;;3.60;83.80;;;;;;5060674;28;20037;-76
2021/04/17 05:22:11;;;;;;;18.38;12.13;;;3.60;83.60;;;;;;5059051;28;20028;-76
2021/04/17 05:24:38;;;;;;;19.55;12.55;;;3.60;83.50;;;;;;5057603;28;20036;-74
2021/04/17 05:27:04;;;;;;;16.88;10.85;;;3.60;83.40;;;;;;5055772;28;20483;-76
2021/04/17 05:29:29;;;;;;;17.25;11.57;;;3.60;83.30;;;;;;5058842;28;20028;-78
2021/04/17 05:31:55;;;;;;;20.27;11.90;;;3.60;83.20;;;;;;5059957;28;20245;-76
2021/04/17 05:34:21;;;;;;;20.70;12.38;;;3.60;83.20;;;;;;5058251;28;20041;-79
2021/04/17 05:36:47;;;;;;;19.85;12.55;;;3.60;83.10;;;;;;5058523;28;20048;-74
2021/04/17 05:39:12;;;;;;;20.20;12.43;;;3.70;83.10;;;;;;5059685;28;20430;-78
2021/04/17 05:41:38;;;;;;;18.45;11.55;;;3.70;83.00;;;;;;5059961;28;20056;-75
2021/04/17 05:44:10;;;;;;;18.42;11.23;;;3.70;83.00;;;;;;5058650;28;20032;-75
2021/04/17 05:46:40;;;;;;;18.92;11.43;;;3.80;83.00;;;;;;5059969;28;20527;-76
2021/04/17 05:49:07;;;;;;;20.00;11.50;;;3.90;82.80;;;;;;5052506;28;20070;-74
2021/04/17 05:51:38;;;;;;;17.38;10.85;;;3.90;82.60;;;;;;5055363;28;20082;-74
2021/04/17 05:54:05;;;;;;;17.45;12.07;;;4.00;82.40;;;;;;5051756;28;20040;-76
2021/04/17 05:56:31;;;;;;;20.02;13.60;;;4.00;82.20;;;;;;5055404;28;20041;-77
2021/04/17 05:58:56;;;;;;;17.52;11.77;;;4.10;81.90;;;;;;5058563;28;20399;-75
2021/04/17 06:01:23;;;;;;;17.27;10.82;;;4.10;81.70;;;;;;5055004;28;20033;-74
2021/04/17 06:03:48;;;;;;;16.45;10.82;;;4.20;81.30;;;;;;5057698;28;20047;-74
2021/04/17 06:06:14;;;;;;;15.45;10.52;;;4.20;81.10;;;;;;5058947;28;20041;-79
2021/04/17 06:08:40;;;;;;;20.33;9.85;;;4.30;80.70;;;;;;5055451;28;20040;-74
2021/04/17 06:11:06;;;;;;;17.05;10.02;;;4.30;80.50;;;;;;5053045;28;20476;-79
2021/04/17 06:13:33;;;;;;;15.60;10.05;;;4.40;80.60;;;;;;5057938;28;20033;-75
2021/04/17 06:16:00;;;;;;;17.35;10.35;;;4.40;80.60;;;;;;5056748;28;20052;-75
2021/04/17 06:18:26;;;;;;;15.55;9.93;;;4.50;80.70;;;;;;5054630;28;20062;-80
2021/04/17 06:20:52;;;;;;;17.33;9.30;;;4.60;80.50;;;;;;5057447;28;20064;-79
2021/04/17 06:23:18;;;;;;;19.75;10.32;;;4.60;80.40;;;;;;5047311;28;20068;-76
2021/04/17 06:25:43;;;;;;;17.65;9.25;;;4.60;80.40;;;;;;5039827;28;20468;-79
2021/04/17 06:28:09;;;;;;;15.15;9.30;;;4.70;80.20;;;;;;5034100;28;20049;-75
2021/04/17 06:30:35;;;;;;;18.00;9.35;;;4.80;80.30;;;;;;5033808;28;20075;-73
2021/04/17 06:33:01;;;;;;;11.75;8.63;;;4.90;80.40;;;;;;5028031;28;21781;-74
2021/04/17 06:35:27;;;;;;;15.23;9.23;;;5.00;80.00;;;;;;5033863;28;20496;-74
2021/04/17 06:37:53;;;;;;;16.35;9.13;;;5.10;79.50;;;;;;5038875;28;20091;-74
2021/04/17 06:40:19;;;;;;;19.88;10.52;;;5.20;79.40;;;;;;5039316;28;20415;-76
2021/04/17 06:42:46;;;;;;;14.90;9.90;;;5.40;79.00;;;;;;5036937;28;20114;-74
2021/04/17 06:45:13;;;;;;;16.90;10.70;;;5.40;78.70;;;;;;5037433;28;20499;-69
2021/04/17 06:47:40;;;;;;;15.98;10.10;;;5.60;78.80;;;;;;5033671;28;20041;-68
2021/04/17 06:50:08;;;;;;;14.57;8.95;;;5.60;78.00;;;;;;5037094;28;20055;-68
2021/04/17 06:52:36;;;;;;;15.18;8.95;;;5.70;78.20;;;;;;5053783;28;20047;-70
2021/04/17 06:55:03;;;;;;;14.82;9.40;;;5.80;78.20;;;;;;5054348;28;20544;-72
2021/04/17 06:57:29;;;;;;;14.60;8.20;;;5.80;77.90;;;;;;5054999;28;20040;-68
2021/04/17 06:59:55;;;;;;;12.27;7.70;;;6.10;77.70;;;;;;5052523;28;20178;-71
2021/04/17 07:02:21;;;;;;;14.82;7.60;;;6.30;77.10;;;;;;5054784;28;20046;-68
2021/04/17 07:04:51;;;;;;;11.10;7.07;;;6.50;76.50;;;;;;5060111;28;20037;-68
2021/04/17 07:07:17;;;;;;;11.85;6.90;;;6.50;75.50;;;;;;5054139;28;20662;-69
2021/04/17 07:09:42;;;;;;;14.85;7.85;;;6.60;75.10;;;;;;5058900;28;20064;-68
2021/04/17 07:12:08;;;;;;;13.38;6.97;;;6.70;74.90;;;;;;5066514;28;20447;-69
2021/04/17 07:14:52;;;;;;;14.52;8.38;;;6.80;74.50;;;;;;5060506;28;20029;-69
2021/04/17 07:17:19;;;;;;;12.38;7.60;;;7.00;74.50;;;;;;5057558;28;20159;-71
2021/04/17 07:19:45;;;;;;;14.23;6.80;;;7.00;73.60;;;;;;5071704;28;20043;-68
2021/04/17 07:22:32;;;;;;;12.00;6.38;;;7.10;73.30;;;;;;5063040;28;20488;-68
2021/04/17 07:25:06;;;;;;;13.77;6.57;;;7.20;72.70;;;;;;5063092;28;20075;-69
2021/04/17 07:27:52;;;;;;;14.63;7.03;;;7.30;72.40;;;;;;5038683;28;20053;-68
2021/04/17 07:30:18;;;;;;;14.75;7.68;;;7.50;72.20;;;;;;5058391;28;20094;-67
2021/04/17 07:32:47;;;;;;;13.07;7.60;;;7.70;70.80;;;;;;5064795;28;20037;-69
2021/04/17 07:35:19;;;;;;;14.65;7.28;;;7.90;71.20;;;;;;5057481;28;20488;-68
2021/04/17 07:37:47;;;;;;;14.15;6.93;;;8.00;70.00;;;;;;5066420;28;20074;-68
2021/04/17 07:40:26;;;;;;;15.70;7.45;;;8.10;69.20;;;;;;5068712;28;20123;-68
2021/04/17 07:42:57;;;;;;;13.95;7.50;;;8.30;68.90;;;;;;5068129;28;20036;-68
2021/04/17 07:45:35;;;;;;;11.05;6.97;;;8.50;67.80;;;;;;5066682;28;20032;-68
2021/04/17 07:48:25;;;;;;;15.52;7.07;;;8.40;66.70;;;;;;5067528;28;20039;-69
2021/04/17 07:50:52;;;;;;;12.35;7.18;;;8.40;67.20;;;;;;5065211;28;20071;-68
2021/04/17 07:53:27;;;;;;;12.77;6.95;;;8.50;66.60;;;;;;5067359;28;20129;-67
2021/04/17 07:55:53;;;;;;;13.02;6.47;;;8.40;65.90;;;;;;5058956;28;20053;-69
2021/04/17 07:58:19;;;;;;;15.05;7.28;;;8.50;66.20;;;;;;5061780;28;20037;-68
2021/04/17 08:00:46;;;;;;;13.70;6.72;;;8.70;66.90;;;;;;5057602;28;20465;-68
2021/04/17 08:03:12;;;;;;;13.07;6.18;;;9.00;65.40;;;;;;5059155;28;20033;-68
2021/04/17 08:05:38;;;;;;;11.77;7.32;;;8.90;64.00;;;;;;5059168;28;20039;-69
2021/04/17 08:08:04;;;;;;;18.38;7.13;;;8.90;64.00;;;;;;5058179;28;20033;-69
2021/04/17 08:10:32;;;;;;;13.73;6.60;;;9.10;63.50;;;;;;5057312;28;20079;-70
2021/04/17 08:13:00;;;;;;;13.40;6.13;;;8.90;61.10;;;;;;5053517;28;20032;-69
2021/04/17 08:15:26;;;;;;;11.65;6.53;;;8.80;62.10;;;;;;5059671;28;20035;-69
2021/04/17 08:17:53;;;;;;;11.80;6.07;;;9.10;62.70;;;;;;5067899;28;20041;-70
2021/04/17 08:20:21;;;;;;;9.70;5.22;;;9.40;60.10;;;;;;5056838;28;20043;-71
2021/04/17 08:22:51;;;;;;;10.23;4.90;;;9.40;59.40;;;;;;5057478;28;20043;-71
2021/04/17 08:25:23;;;;;;;9.65;5.57;;;9.50;59.20;;;;;;5061379;28;20017;-70
2021/04/17 08:27:50;;;;;;;12.32;5.57;;;9.70;59.40;;;;;;5060257;28;20123;-70
2021/04/17 08:30:34;;;;;;;12.18;5.72;;;9.90;57.50;;;;;;5064623;28;20041;-69
2021/04/17 08:33:25;;;;;;;10.10;5.18;;;10.10;57.10;;;;;;5056583;28;20144;-69
2021/04/17 08:35:51;;;;;;;11.52;4.82;;;10.40;54.60;;;;;;5050731;28;20037;-74
2021/04/17 08:38:17;;;;;;;11.10;5.20;;;10.20;53.80;;;;;;5061260;28;20480;-70
2021/04/17 08:40:46;;;;;;;13.90;5.07;;;10.10;53.50;;;;;;5056877;28;20025;-69
2021/04/17 08:43:18;;;;;;;12.50;5.32;;;10.00;53.90;;;;;;5065134;28;20430;-69
2021/04/17 08:46:06;;;;;;;11.15;5.22;;;10.20;52.90;;;;;;5056227;28;20040;-69
2021/04/17 08:48:53;;;;;;;12.35;5.18;;;10.30;53.40;;;;;;5033055;28;20044;-70
2021/04/17 08:51:22;;;;;;;10.43;4.18;;;10.30;52.20;;;;;;5042546;28;20041;-70
2021/04/17 08:53:57;;;;;;;11.18;4.32;;;10.50;51.10;;;;;;5037694;28;20029;-70
2021/04/17 08:56:42;;;;;;;10.35;4.47;;;10.30;50.70;;;;;;5039929;28;20088;-70
2021/04/17 08:59:08;;;;;;;9.68;4.45;;;10.40;50.70;;;;;;5034485;28;20057;-68
2021/04/17 09:01:41;;;;;;;8.55;4.55;;;10.70;50.40;;;;;;5039573;28;20030;-69
2021/04/17 09:04:10;;;;;;;11.52;4.18;;;11.00;49.40;;;;;;5037697;28;20030;-69
2021/04/17 09:06:48;;;;;;;8.35;3.63;;;11.20;48.30;;;;;;5044885;28;20043;-69
2021/04/17 09:09:16;;;;;;;6.32;3.70;;;11.20;47.50;;;;;;5043937;28;20041;-69
2021/04/17 09:11:51;;;;;;;8.95;3.47;;;10.80;46.60;;;;;;5043631;28;20536;-69
2021/04/17 09:14:27;;;;;;;11.73;3.33;;;10.70;47.30;;;;;;5041224;28;20037;-68
2021/04/17 09:16:57;;;;;;;7.47;3.28;;;10.80;47.40;;;;;;5046381;28;20140;-69
2021/04/17 09:19:41;;;;;;;6.10;3.15;;;10.90;46.40;;;;;;5041823;28;20038;-69
2021/04/17 09:22:30;;;;;;;7.63;3.35;;;11.10;46.20;;;;;;5036253;28;20056;-71
2021/04/17 09:25:14;;;;;;;7.35;3.28;;;11.30;45.50;;;;;;5036318;28;20043;-69
2021/04/17 09:27:50;;;;;;;7.93;3.28;;;11.30;44.10;;;;;;5046035;28;20053;-68
2021/04/17 09:30:20;;;;;;;5.93;2.78;;;11.30;43.50;;;;;;5054059;28;20493;-68
2021/04/17 09:32:57;;;;;;;7.15;3.10;;;11.10;44.20;;;;;;5055276;28;20086;-70
2021/04/17 09:35:34;;;;;;;6.68;2.65;;;11.40;43.20;;;;;;5058105;28;20052;-70
2021/04/17 09:38:16;;;;;;;5.82;3.05;;;11.30;42.10;;;;;;5056738;28;20048;-69
2021/04/17 09:40:51;;;;;;;6.30;2.80;;;11.30;43.20;;;;;;5037906;28;20028;-68
2021/04/17 09:43:24;;;;;;;7.80;3.33;;;11.40;41.50;;;;;;5043410;28;20029;-73
2021/04/17 09:45:51;;;;;;;6.38;3.00;;;11.50;41.90;;;;;;5036196;28;20561;-72
2021/04/17 09:48:18;;;;;;;6.70;3.00;;;11.50;41.80;;;;;;5038390;28;20036;-73
2021/04/17 09:50:44;;;;;;;6.80;2.72;;;11.80;42.50;;;;;;5039012;28;20079;-74
2021/04/17 09:53:21;;;;;;;6.32;2.55;;;11.90;40.70;;;;;;5032678;28;20476;-72
2021/04/17 09:55:48;;;;;;;6.07;3.20;;;11.80;40.50;;;;;;5038080;28;20194;-67
2021/04/17 09:58:27;;;;;;;8.35;3.15;;;11.80;41.00;;;;;;5034875;28;20055;-66
2021/04/17 10:00:53;;;;;;;8.43;2.83;;;11.80;40.20;;;;;;5036219;28;20029;-66
2021/04/17 10:03:30;;;;;;;6.95;3.10;;;11.80;40.90;;;;;;5034393;28;20033;-68
2021/04/17 10:05:56;;;;;;;8.57;2.88;;;11.90;40.70;;;;;;5030440;28;20049;-70
2021/04/17 10:08:27;;;;;;;5.80;2.70;;;12.10;40.30;;;;;;5036837;28;20032;-68
2021/04/17 10:10:53;;;;;;;7.80;2.95;;;12.30;38.40;;;;;;5036755;28;20041;-67
2021/04/17 10:13:45;;;;;;;10.52;3.00;;;12.10;39.60;;;;;;5036826;28;21252;-70
2021/04/17 10:16:13;;;;;;;6.43;3.33;;;11.90;39.70;;;;;;5040051;28;20548;-67
2021/04/17 10:18:42;;;;;;;7.18;2.92;;;12.10;40.50;;;;;;5035204;28;20049;-67
2021/04/17 10:21:08;;;;;;;5.97;2.70;;;12.00;40.10;;;;;;5035080;28;20025;-67
2021/04/17 10:23:34;;;;;;;7.60;3.38;;;12.20;40.30;;;;;;5036434;28;20071;-67
2021/04/17 10:26:08;;;;;;;7.97;3.22;;;12.50;40.10;;;;;;5036016;28;20431;-67
2021/04/17 10:28:35;;;;;;;8.27;3.13;;;12.30;39.80;;;;;;5037877;28;20124;-66
2021/04/17 10:31:18;;;;;;;7.88;3.60;;;12.40;39.30;;;;;;5035282;28;20033;-68
2021/04/17 10:33:46;;;;;;;7.28;3.20;;;12.20;39.20;;;;;;5035306;28;20067;-68
2021/04/17 10:36:22;;;;;;;8.32;3.38;;;12.10;37.90;;;;;;5030678;28;20041;-69
2021/04/17 10:38:49;;;;;;;7.18;2.95;;;12.20;38.70;;;;;;5034830;28;20029;-67
2021/04/17 10:41:30;;;;;;;10.57;4.43;;;12.30;39.00;;;;;;5037293;28;20052;-67
2021/04/17 10:44:16;;;;;;;10.65;4.50;;;12.50;39.40;;;;;;5035687;28;20045;-70
2021/04/17 10:46:47;;;;;;;8.70;3.80;;;12.50;37.40;;;;;;5037133;28;20128;-68
2021/04/17 10:49:32;;;;;;;5.97;3.38;;;12.40;37.30;;;;;;5038410;28;20057;-68
2021/04/17 10:52:00;;;;;;;8.50;3.00;;;12.50;38.40;;;;;;5040978;28;20041;-67
2021/04/17 10:54:26;;;;;;;7.53;3.15;;;12.60;38.30;;;;;;5038491;28;20115;-67
2021/04/17 10:57:06;;;;;;;9.52;3.40;;;12.80;38.60;;;;;;5039160;28;20049;-67
2021/04/17 10:59:51;;;;;;;6.50;3.47;;;12.50;38.00;;;;;;5040000;28;20041;-67
2021/04/17 11:02:25;;;;;;;7.35;3.20;;;12.20;37.90;;;;;;5039414;28;20061;-66
2021/04/17 11:04:51;;;;;;;10.27;4.63;;;12.60;38.70;;;;;;5041400;28;20480;-67
2021/04/17 11:07:17;;;;;;;7.00;3.72;;;12.60;39.00;;;;;;5039004;28;20086;-69
2021/04/17 11:09:48;;;;;;;5.60;2.80;;;12.70;38.90;;;;;;5040088;28;20048;-69
2021/04/17 11:12:29;;;;;;;6.25;3.30;;;12.90;37.60;;;;;;5039768;28;20044;-70
2021/04/17 11:15:27;;;;;;;6.40;2.97;;;13.10;38.20;;;;;;5038932;28;20039;-69
2021/04/17 11:18:13;;;;;;;7.45;3.22;;;13.00;38.30;;;;;;5037554;28;20431;-67
2021/04/17 11:20:45;;;;;;;7.40;3.53;;;13.10;37.80;;;;;;5038594;28;20047;-68
2021/04/17 11:23:34;;;;;;;7.72;4.20;;;13.40;38.30;;;;;;5037384;28;20037;-68
2021/04/17 11:26:05;;;;;;;6.90;3.50;;;13.50;37.00;;;;;;5038685;28;20043;-67
2021/04/17 11:28:31;;;;;;;7.85;3.10;;;13.30;37.00;;;;;;5038827;28;20511;-69
2021/04/17 11:30:57;;;;;;;6.90;3.70;;;13.10;35.90;;;;;;5035722;28;20445;-70
2021/04/17 11:33:24;;;;;;;7.38;3.80;;;13.10;36.90;;;;;;5037192;28;20060;-68
2021/04/17 11:35:50;;;;;;;7.25;2.90;;;13.50;37.60;;;;;;5035466;28;20388;-68
2021/04/17 11:38:16;;;;;;;6.63;3.38;;;13.30;36.70;;;;;;5038876;28;20040;-69
2021/04/17 11:40:42;;;;;;;6.22;3.30;;;13.40;37.10;;;;;;5042137;28;20102;-67
2021/04/17 11:43:07;;;;;;;8.15;3.65;;;13.20;36.40;;;;;;5043867;28;20475;-68
2021/04/17 11:45:33;;;;;;;8.43;3.97;;;13.50;36.70;;;;;;5041260;28;20506;-67
2021/04/17 11:47:59;;;;;;;7.93;4.28;;;13.30;38.60;;;;;;5056809;28;20047;-67
2021/04/17 11:50:25;;;;;;;8.35;3.50;;;13.60;38.60;;;;;;5065460;28;20459;-70
2021/04/17 11:52:50;;;;;;;7.93;3.92;;;13.50;37.20;;;;;;5067182;28;20123;-68
2021/04/17 11:55:16;;;;;;;9.85;4.72;;;13.10;38.30;;;;;;5061683;28;20105;-68
2021/04/17 11:57:42;;;;;;;6.95;3.70;;;13.10;39.30;;;;;;5066728;28;20061;-68
2021/04/17 12:00:08;;;;;;;7.40;3.75;;;13.10;38.90;;;;;;5067982;28;20040;-68
2021/04/17 12:02:34;;;;;;;6.93;3.80;;;13.30;39.30;;;;;;5065474;28;20078;-69
2021/04/17 12:05:00;;;;;;;9.32;4.03;;;13.30;39.20;;;;;;5065999;28;20036;-68
2021/04/17 12:07:25;;;;;;;9.48;4.30;;;13.30;39.30;;;;;;5063976;28;20502;-68
2021/04/17 12:09:55;;;;;;;7.43;3.92;;;13.50;40.50;;;;;;5067328;28;20039;-67
2021/04/17 12:12:20;;;;;;;9.23;4.43;;;13.10;39.60;;;;;;5063419;28;20028;-68
2021/04/17 12:14:46;;;;;;;9.48;4.80;;;13.00;40.50;;;;;;5066760;28;20487;-67
2021/04/17 12:17:12;;;;;;;9.40;3.75;;;13.30;41.30;;;;;;5064963;28;20044;-68
2021/04/17 12:19:38;;;;;;;9.38;4.20;;;13.40;39.90;;;;;;5060954;28;20051;-67
2021/04/17 12:22:04;;;;;;;8.43;4.30;;;13.30;40.80;;;;;;5054574;28;20028;-68
2021/04/17 12:24:29;;;;;;;8.52;3.80;;;13.50;40.00;;;;;;5068317;28;20039;-70
2021/04/17 12:26:55;;;;;;;8.75;4.20;;;13.10;39.70;;;;;;5072219;28;20056;-68
2021/04/17 12:29:21;;;;;;;7.97;3.92;;;13.10;40.40;;;;;;5074220;28;20401;-68
2021/04/17 12:31:47;;;;;;;6.65;3.78;;;13.40;39.60;;;;;;5071264;28;20040;-67
2021/04/17 12:34:12;;;;;;;8.77;4.45;;;13.40;40.00;;;;;;5068721;28;20029;-69
2021/04/17 12:36:38;;;;;;;6.95;3.55;;;13.60;39.90;;;;;;5062565;28;20075;-69
2021/04/17 12:39:04;;;;;;;8.10;4.03;;;13.60;38.90;;;;;;5065563;28;20055;-68
2021/04/17 12:41:31;;;;;;;8.88;4.30;;;13.50;39.10;;;;;;5066936;28;20028;-68
2021/04/17 12:43:57;;;;;;;8.40;4.10;;;13.50;39.10;;;;;;5060601;28;20033;-68
2021/04/17 12:46:23;;;;;;;7.78;3.88;;;13.40;39.00;;;;;;5058029;28;20037;-68
2021/04/17 12:48:49;;;;;;;9.50;4.05;;;13.40;38.30;;;;;;5069852;28;20114;-67
2021/04/17 12:51:15;;;;;;;8.35;4.10;;;13.10;39.00;;;;;;5066935;28;20127;-69
2021/04/17 12:53:40;;;;;;;9.18;3.95;;;13.20;40.10;;;;;;5063281;28;20476;-69